Time;durP1;ratioP1;P1;durP2;ratioP2;P2;SDS_P1;SDS_P2;PMS_P1;PMS_P2;Temp;Humidity;BMP_temperature;BMP_pressure;BME280_temperature;BME280_humidity;BME280_pressure;Samples;Min_cycle;Max_cycle;Signal;HPM_P1;HPM_P2
2022/02/24 00:02:07;;;;;;;111.70;38.10;;;;;;;-1.85;100.00;100462.19;5116149;28;20326;-77
2022/02/24 00:04:51;;;;;;;99.53;34.33;;;;;;;-1.90;100.00;100462.00;5116200;28;20051;-77
2022/02/24 00:07:36;;;;;;;90.20;33.85;;;;;;;-1.90;100.00;100476.53;5116705;28;20346;-77
2022/02/24 00:10:21;;;;;;;89.43;31.42;;;;;;;-1.93;100.00;100467.03;5116730;28;20047;-77
2022/02/24 00:13:05;;;;;;;79.60;31.33;;;;;;;-1.98;100.00;100470.25;5116812;28;20047;-77
2022/02/24 00:15:50;;;;;;;79.15;28.33;;;;;;;-1.97;100.00;100474.56;5101617;28;20040;-77
2022/02/24 00:18:34;;;;;;;77.35;28.05;;;;;;;-2.15;100.00;100439.69;5116065;28;20075;-77
2022/02/24 00:21:18;;;;;;;68.30;25.15;;;;;;;-2.07;100.00;100460.53;5115743;28;20048;-77
2022/02/24 00:24:04;;;;;;;67.38;25.65;;;;;;;-2.02;100.00;100470.97;5115449;28;20036;-77
2022/02/24 00:26:49;;;;;;;67.35;24.13;;;;;;;-2.06;100.00;100469.97;5116456;28;20092;-77
2022/02/24 00:29:34;;;;;;;62.15;24.05;;;;;;;-2.14;100.00;100463.72;5115702;28;20501;-77
2022/02/24 00:32:18;;;;;;;74.63;25.77;;;;;;;-2.15;100.00;100462.81;5116286;28;20048;-77
2022/02/24 00:35:04;;;;;;;75.88;25.23;;;;;;;-2.04;100.00;100465.78;5101362;28;20053;-77
2022/02/24 00:37:49;;;;;;;72.13;25.98;;;;;;;-1.97;100.00;100477.16;5115592;28;20375;-77
2022/02/24 00:40:33;;;;;;;70.95;26.42;;;;;;;-2.03;100.00;100462.38;5115549;28;20113;-77
2022/02/24 00:43:17;;;;;;;85.90;29.63;;;;;;;-2.12;100.00;100451.78;5115617;28;20044;-77
2022/02/24 00:46:02;;;;;;;82.53;30.17;;;;;;;-2.13;100.00;100452.59;5116411;28;20044;-77
2022/02/24 00:48:46;;;;;;;81.28;30.08;;;;;;;-2.18;100.00;100459.25;5116209;28;20043;-77
2022/02/24 00:51:31;;;;;;;73.70;27.42;;;;;;;-2.23;100.00;100451.41;5101130;28;20073;-77
2022/02/24 00:54:15;;;;;;;79.00;30.20;;;;;;;-2.17;100.00;100459.31;5116151;28;20430;-77
2022/02/24 00:57:00;;;;;;;78.32;27.95;;;;;;;-2.27;100.00;100449.56;5115556;28;20425;-77
2022/02/24 00:59:44;;;;;;;71.75;27.70;;;;;;;-2.31;100.00;100441.66;5115671;28;20110;-77
2022/02/24 01:02:29;;;;;;;76.28;28.08;;;;;;;-2.31;100.00;100449.34;5101057;28;20040;-77
2022/02/24 01:05:13;;;;;;;68.20;26.80;;;;;;;-2.35;100.00;100433.84;5115389;28;20104;-77
2022/02/24 01:07:58;;;;;;;70.40;27.13;;;;;;;-2.38;100.00;100436.31;5101018;28;20078;-77
2022/02/24 01:10:42;;;;;;;62.25;24.13;;;;;;;-2.39;100.00;100426.00;5115399;28;20047;-77
2022/02/24 01:13:27;;;;;;;59.55;23.95;;;;;;;-2.38;100.00;100423.47;5116026;28;20047;-77
2022/02/24 01:16:11;;;;;;;61.45;24.10;;;;;;;-2.46;100.00;100417.19;5115285;28;20118;-78
2022/02/24 01:18:57;;;;;;;67.75;25.00;;;;;;;-2.54;100.00;100415.16;5115282;28;20051;-77
2022/02/24 01:21:41;;;;;;;65.60;26.08;;;;;;;-2.61;100.00;100407.22;5115183;28;20411;-77
2022/02/24 01:24:26;;;;;;;60.95;22.05;;;;;;;-2.60;100.00;100409.00;5100972;28;20051;-78
2022/02/24 01:27:10;;;;;;;60.95;25.45;;;;;;;-2.59;100.00;100412.44;5115147;28;20123;-77
2022/02/24 01:29:54;;;;;;;60.88;23.63;;;;;;;-2.62;100.00;100404.63;5115770;28;20043;-77
2022/02/24 01:32:39;;;;;;;56.65;22.92;;;;;;;-2.52;100.00;100408.41;5115153;28;20036;-78
2022/02/24 01:35:24;;;;;;;60.63;23.55;;;;;;;-2.57;100.00;100400.53;5104519;28;20073;-78
2022/02/24 01:38:08;;;;;;;58.83;21.23;;;;;;;-2.61;100.00;100409.78;5118947;28;20039;-78
2022/02/24 01:40:53;;;;;;;55.80;22.30;;;;;;;-2.71;100.00;100394.00;5119623;28;20039;-78
2022/02/24 01:43:37;;;;;;;51.95;20.05;;;;;;;-2.63;100.00;100400.31;5118994;28;20047;-78
2022/02/24 01:46:21;;;;;;;47.47;19.40;;;;;;;-2.66;100.00;100398.50;5118762;28;20399;-78
2022/02/24 01:49:06;;;;;;;53.47;20.58;;;;;;;-2.64;100.00;100407.13;5118710;28;20044;-78
2022/02/24 01:51:51;;;;;;;48.42;18.42;;;;;;;-2.66;100.00;100390.81;5118725;28;20043;-78
2022/02/24 01:54:36;;;;;;;44.97;17.75;;;;;;;-2.76;100.00;100388.72;5118677;28;20047;-78
2022/02/24 01:57:22;;;;;;;43.67;17.10;;;;;;;-2.69;100.00;100392.41;5118571;28;20088;-78
2022/02/24 02:00:07;;;;;;;45.20;19.27;;;;;;;-2.72;100.00;100389.72;5119123;28;20040;-78
2022/02/24 02:02:57;;;;;;;39.80;17.42;;;;;;;-2.67;100.00;100380.47;5119304;28;20040;-78
2022/02/24 02:05:42;;;;;;;52.03;18.75;;;;;;;-2.67;100.00;100375.34;5119279;28;20044;-78
2022/02/24 02:08:27;;;;;;;42.67;19.33;;;;;;;-2.71;100.00;100368.38;5119058;28;20352;-77
2022/02/24 02:11:11;;;;;;;52.53;20.55;;;;;;;-2.69;100.00;100370.19;5118255;28;20114;-77
2022/02/24 02:13:57;;;;;;;46.28;19.75;;;;;;;-2.66;100.00;100364.28;5119001;28;20100;-78
2022/02/24 02:16:43;;;;;;;43.63;18.05;;;;;;;-2.69;100.00;100365.06;5119119;28;20052;-78
2022/02/24 02:19:28;;;;;;;50.53;18.80;;;;;;;-2.68;100.00;100360.78;5118076;28;20051;-78
2022/02/24 02:22:12;;;;;;;50.38;19.08;;;;;;;-2.77;100.00;100350.19;5103699;28;20051;-78
2022/02/24 02:25:03;;;;;;;41.75;18.10;;;;;;;-2.70;100.00;100357.28;5103712;28;20062;-78
2022/02/24 02:27:52;;;;;;;46.85;18.77;;;;;;;-2.70;100.00;100350.47;5118623;28;20452;-78
2022/02/24 02:30:36;;;;;;;53.80;20.15;;;;;;;-2.73;100.00;100346.91;5118682;28;20055;-78
2022/02/24 02:33:20;;;;;;;46.10;18.98;;;;;;;-2.75;100.00;100348.56;5117856;28;20040;-78
2022/02/24 02:36:05;;;;;;;47.33;19.77;;;;;;;-2.76;100.00;100350.25;5118493;28;20058;-78
2022/02/24 02:38:49;;;;;;;50.38;19.35;;;;;;;-2.82;100.00;100335.50;5117789;28;20118;-78
2022/02/24 02:41:34;;;;;;;47.83;19.63;;;;;;;-2.82;100.00;100344.91;5117772;28;20081;-78
2022/02/24 02:44:18;;;;;;;43.55;18.70;;;;;;;-2.82;100.00;100340.66;5103265;28;20040;-78
2022/02/24 02:47:03;;;;;;;51.60;20.10;;;;;;;-2.99;100.00;100321.22;5102887;28;20039;-78
2022/02/24 02:49:47;;;;;;;50.13;19.75;;;;;;;-2.93;100.00;100335.91;5117624;28;20039;-78
2022/02/24 02:52:32;;;;;;;47.08;18.23;;;;;;;-2.91;100.00;100332.59;5117552;28;20058;-78
2022/02/24 02:55:16;;;;;;;45.50;18.45;;;;;;;-2.92;100.00;100335.13;5117453;28;20047;-78
2022/02/24 02:58:01;;;;;;;48.60;18.73;;;;;;;-3.04;100.00;100322.72;5117613;28;20040;-78
2022/02/24 03:00:46;;;;;;;42.60;19.08;;;;;;;-2.94;100.00;100329.06;5102979;28;20031;-78
2022/02/24 03:03:30;;;;;;;42.50;18.33;;;;;;;-2.98;100.00;100317.81;5117278;28;20039;-78
2022/02/24 03:06:15;;;;;;;43.33;17.40;;;;;;;-2.99;100.00;100313.53;5117226;28;20111;-78
2022/02/24 03:08:59;;;;;;;43.53;18.17;;;;;;;-2.95;100.00;100317.06;5117320;28;20105;-78
2022/02/24 03:11:44;;;;;;;45.63;19.05;;;;;;;-3.01;100.00;100310.00;5102962;28;20044;-78
2022/02/24 03:14:28;;;;;;;48.00;18.75;;;;;;;-3.04;100.00;100309.91;5102747;28;20042;-78
2022/02/24 03:17:14;;;;;;;47.28;17.25;;;;;;;-2.98;100.00;100327.19;5117018;28;20074;-78
2022/02/24 03:19:58;;;;;;;41.00;16.25;;;;;;;-3.07;100.00;100313.22;5116932;28;20044;-78
2022/02/24 03:22:43;;;;;;;38.40;16.25;;;;;;;-3.05;100.00;100320.97;5116969;28;20036;-78
2022/02/24 03:25:28;;;;;;;39.97;16.52;;;;;;;-3.05;100.00;100318.41;5102515;28;20101;-78
2022/02/24 03:28:13;;;;;;;41.78;17.80;;;;;;;-3.03;100.00;100313.31;5116667;28;20058;-78
2022/02/24 03:30:57;;;;;;;52.97;18.05;;;;;;;-3.02;100.00;100305.72;5116689;28;20372;-78
2022/02/24 03:33:42;;;;;;;41.65;17.33;;;;;;;-3.04;100.00;100307.34;5117465;28;20040;-77
2022/02/24 03:36:26;;;;;;;43.95;18.60;;;;;;;-3.09;100.00;100294.34;5116633;28;20044;-78
2022/02/24 03:39:11;;;;;;;42.80;16.70;;;;;;;-3.05;100.00;100300.47;5117262;28;20359;-78
2022/02/24 03:41:55;;;;;;;47.45;18.25;;;;;;;-3.20;100.00;100290.50;5117149;28;20040;-78
2022/02/24 03:44:39;;;;;;;38.40;17.40;;;;;;;-3.18;100.00;100298.25;5102211;28;20039;-78
2022/02/24 03:47:24;;;;;;;41.72;16.33;;;;;;;-3.16;100.00;100294.06;5117107;28;20444;-78
2022/02/24 03:50:11;;;;;;;39.22;16.48;;;;;;;-3.18;100.00;100298.25;5116423;28;20042;-78
2022/02/24 03:52:55;;;;;;;53.45;19.10;;;;;;;-3.27;100.00;100285.97;5116381;28;20040;-78
2022/02/24 03:55:39;;;;;;;44.15;17.98;;;;;;;-3.25;100.00;100288.56;5116341;28;20039;-78
2022/02/24 03:58:24;;;;;;;44.47;18.85;;;;;;;-3.21;100.00;100280.22;5116101;28;20426;-78
2022/02/24 04:01:08;;;;;;;43.40;17.90;;;;;;;-3.24;100.00;100286.09;5116843;28;20085;-78
2022/02/24 04:03:53;;;;;;;46.53;17.90;;;;;;;-3.21;100.00;100277.66;5101848;28;20047;-78
2022/02/24 04:06:37;;;;;;;50.88;19.63;;;;;;;-3.20;100.00;100267.44;5116203;28;20039;-78
2022/02/24 04:09:22;;;;;;;52.05;19.40;;;;;;;-3.17;100.00;100266.69;5101725;28;20344;-78
2022/02/24 04:12:07;;;;;;;52.80;18.35;;;;;;;-3.24;100.00;100257.03;5116091;28;20372;-78
2022/02/24 04:14:52;;;;;;;47.38;19.15;;;;;;;-3.26;100.00;100256.09;5101782;28;20046;-78
2022/02/24 04:17:36;;;;;;;51.45;20.23;;;;;;;-3.28;100.00;100258.59;5115951;28;20035;-78
2022/02/24 04:20:21;;;;;;;53.58;21.75;;;;;;;-3.36;100.00;100245.50;5101470;28;20035;-78
2022/02/24 04:23:05;;;;;;;69.88;27.15;;;;;;;-3.30;100.00;100257.66;5116682;28;20101;-78
2022/02/24 04:25:50;;;;;;;71.70;27.92;;;;;;;-3.38;100.00;100256.50;5101593;28;20054;-78
2022/02/24 04:28:34;;;;;;;84.47;34.80;;;;;;;-3.34;100.00;100250.69;5116552;28;20051;-78
2022/02/24 04:31:19;;;;;;;97.25;37.75;;;;;;;-3.37;100.00;100258.25;5116193;28;20062;-78
2022/02/24 04:34:04;;;;;;;102.30;38.53;;;;;;;-3.35;100.00;100252.38;5116167;28;20066;-78
2022/02/24 04:36:48;;;;;;;101.10;40.33;;;;;;;-3.35;100.00;100251.47;5115380;28;20048;-78
2022/02/24 04:39:32;;;;;;;109.15;42.90;;;;;;;-3.38;100.00;100244.59;5114517;28;20045;-78
2022/02/24 04:42:17;;;;;;;106.30;44.08;;;;;;;-3.36;100.00;100244.63;5113384;28;20058;-78
2022/02/24 04:45:01;;;;;;;99.97;43.03;;;;;;;-3.33;100.00;100237.91;5107922;28;20032;-78
2022/02/24 04:47:46;;;;;;;111.10;43.30;;;;;;;-3.39;100.00;100227.44;5093371;28;20418;-77
2022/02/24 04:50:30;;;;;;;98.05;42.40;;;;;;;-3.41;100.00;100221.41;5093962;28;20052;-77
2022/02/24 04:53:15;;;;;;;100.60;42.30;;;;;;;-3.39;100.00;100227.44;5093341;28;20043;-77
2022/02/24 04:56:00;;;;;;;93.97;40.88;;;;;;;-3.44;100.00;100212.75;5094040;28;20036;-78
2022/02/24 04:58:44;;;;;;;98.80;40.75;;;;;;;-3.45;100.00;100219.53;5093299;28;20047;-77
2022/02/24 05:01:28;;;;;;;94.80;38.78;;;;;;;-3.48;100.00;100216.84;5078965;28;20063;-78
2022/02/24 05:04:13;;;;;;;93.68;40.05;;;;;;;-3.49;100.00;100215.09;5093226;28;20040;-77
2022/02/24 05:07:00;;;;;;;88.18;36.22;;;;;;;-3.45;100.00;100229.78;5093165;28;20377;-77
2022/02/24 05:09:44;;;;;;;89.32;37.00;;;;;;;-3.45;100.00;100219.53;5096236;28;20056;-77
2022/02/24 05:12:29;;;;;;;89.05;36.80;;;;;;;-3.39;100.00;100211.19;5097601;28;20418;-78
2022/02/24 05:15:13;;;;;;;98.22;39.55;;;;;;;-3.35;100.00;100200.25;5097540;28;20088;-78
2022/02/24 05:17:57;;;;;;;110.38;44.80;;;;;;;-3.27;100.00;100203.97;5097535;28;20449;-77
2022/02/24 05:20:42;;;;;;;107.53;45.33;;;;;;;-3.23;100.00;100199.84;5097834;28;20039;-77
2022/02/24 05:23:26;;;;;;;101.35;41.42;;;;;;;-3.19;100.00;100194.88;5099510;28;20063;-77
2022/02/24 05:26:11;;;;;;;82.38;34.47;;;;;;;-3.09;100.00;100198.63;5084490;28;20048;-77
2022/02/24 05:28:55;;;;;;;76.80;33.92;;;;;;;-3.02;100.00;100194.59;5084251;28;20048;-77
2022/02/24 05:31:39;;;;;;;93.57;38.08;;;;;;;-2.83;100.00;100189.28;5099368;28;20400;-77
2022/02/24 05:34:24;;;;;;;127.22;45.83;;;;;;;-2.65;100.00;100191.63;5098587;28;20040;-77
2022/02/24 05:37:08;;;;;;;121.85;44.28;;;;;;;-2.45;100.00;100182.91;5098455;28;20114;-76
2022/02/24 05:39:53;;;;;;;116.07;43.33;;;;;;;-2.30;100.00;100179.97;5098014;28;20332;-76
2022/02/24 05:42:38;;;;;;;78.40;28.65;;;;;;;-2.15;100.00;100171.88;5096640;28;20040;-76
2022/02/24 05:45:22;;;;;;;133.63;50.58;;;;;;;-1.98;100.00;100174.97;5097845;28;20047;-76
2022/02/24 05:48:06;;;;;;;171.70;62.10;;;;;;;-1.94;100.00;100177.72;5097151;28;20044;-76
2022/02/24 05:50:51;;;;;;;148.23;56.35;;;;;;;-1.89;100.00;100176.13;5082891;28;20514;-76
2022/02/24 05:53:36;;;;;;;143.05;54.08;;;;;;;-1.80;100.00;100177.25;5097387;28;20044;-76
2022/02/24 05:56:20;;;;;;;146.50;53.20;;;;;;;-1.77;100.00;100170.50;5098146;28;20044;-76
2022/02/24 05:59:04;;;;;;;138.85;49.33;;;;;;;-1.74;100.00;100162.03;5098173;28;20101;-76
2022/02/24 06:01:50;;;;;;;114.35;41.35;;;;;;;-1.67;100.00;100163.94;5097830;28;20035;-76
2022/02/24 06:04:34;;;;;;;125.18;43.70;;;;;;;-1.60;100.00;100159.88;5098938;28;20341;-76
2022/02/24 06:07:18;;;;;;;108.40;39.47;;;;;;;-1.52;100.00;100156.72;5084579;28;20044;-75
2022/02/24 06:10:04;;;;;;;87.45;33.10;;;;;;;-1.44;100.00;100144.06;5098632;28;20414;-76
2022/02/24 06:12:48;;;;;;;66.75;25.45;;;;;;;-1.41;100.00;100129.59;5098164;28;20418;-76
2022/02/24 06:15:32;;;;;;;42.42;19.52;;;;;;;-1.27;100.00;100137.72;5099064;28;20040;-76
2022/02/24 06:18:18;;;;;;;39.17;16.67;;;;;;;-1.23;100.00;100129.25;5098390;28;20035;-76
2022/02/24 06:21:02;;;;;;;32.50;14.90;;;;;;;-1.01;100.00;100137.53;5097318;28;20105;-76
2022/02/24 06:23:47;;;;;;;44.00;16.85;;;;;;;-0.82;100.00;100133.75;5098560;28;20051;-76
2022/02/24 06:26:32;;;;;;;41.72;15.23;;;;;;;-0.69;100.00;100135.81;5083664;28;20047;-76
2022/02/24 06:29:16;;;;;;;37.83;14.98;;;;;;;-0.56;100.00;100132.69;5097159;28;20048;-77
2022/02/24 06:32:00;;;;;;;41.45;17.17;;;;;;;-0.30;100.00;100138.47;5096611;28;20040;-78
2022/02/24 06:34:44;;;;;;;43.00;19.05;;;;;;;0.29;100.00;100137.22;5095578;28;20132;-77
2022/02/24 06:37:30;;;;;;;43.15;18.13;;;;;;;0.87;100.00;100128.09;5096163;28;20036;-78
2022/02/24 06:40:14;;;;;;;43.53;19.02;;;;;;;1.26;100.00;100124.53;5096117;28;20040;-78
2022/02/24 06:42:59;;;;;;;33.05;15.18;;;;;;;1.58;100.00;100107.84;5097097;28;20048;-76
2022/02/24 06:45:43;;;;;;;40.03;16.05;;;;;;;1.99;100.00;100124.84;5095328;28;20040;-77
2022/02/24 06:48:29;;;;;;;39.45;14.13;;;;;;;2.22;100.00;100115.69;5080920;28;20530;-77
2022/02/24 06:51:14;;;;;;;35.35;14.18;;;;;;;2.61;100.00;100117.06;5095155;28;20054;-76
2022/02/24 06:53:58;;;;;;;39.88;16.88;;;;;;;2.88;100.00;100102.69;5080948;28;20036;-76
2022/02/24 06:56:43;;;;;;;46.67;18.48;;;;;;;3.34;100.00;100103.16;5095723;28;20430;-76
2022/02/24 06:59:28;;;;;;;49.75;20.13;;;;;;;3.56;100.00;100104.19;5095358;28;20051;-76
2022/02/24 07:02:13;;;;;;;65.50;28.45;;;;;;;3.63;100.00;100080.06;5097375;28;20060;-76
2022/02/24 07:04:57;;;;;;;75.35;27.35;;;;;;;4.09;100.00;100075.19;5097619;28;20055;-77
2022/02/24 07:07:42;;;;;;;73.28;24.40;;;;;;;4.19;100.00;100092.50;5097938;28;20064;-77
2022/02/24 07:10:26;;;;;;;73.95;26.63;;;;;;;4.28;100.00;100084.78;5082727;28;20059;-77
2022/02/24 07:13:10;;;;;;;78.40;27.65;;;;;;;4.38;100.00;100088.28;5096310;28;20060;-78
2022/02/24 07:15:55;;;;;;;52.97;23.10;;;;;;;4.40;100.00;100076.22;5097345;28;20137;-77
2022/02/24 07:18:40;;;;;;;35.35;15.75;;;;;;;4.92;100.00;100077.22;5094465;28;20044;-77
2022/02/24 07:21:24;;;;;;;31.33;13.30;;;;;;;4.91;100.00;100078.09;5094386;28;20352;-78
2022/02/24 07:24:08;;;;;;;43.88;17.55;;;;;;;5.14;100.00;100065.16;5094464;28;20042;-79
2022/02/24 07:26:52;;;;;;;49.85;22.80;;;;;;;5.52;100.00;100066.88;5095050;28;20081;-79
2022/02/24 07:29:37;;;;;;;48.75;17.70;;;;;;;5.67;100.00;100072.97;5094234;28;20052;-79
2022/02/24 07:32:21;;;;;;;41.03;16.67;;;;;;;5.83;100.00;100074.66;5094271;28;20036;-79
2022/02/24 07:35:06;;;;;;;36.90;14.38;;;;;;;6.15;100.00;100068.56;5094959;28;20093;-79
2022/02/24 07:37:50;;;;;;;37.63;16.77;;;;;;;6.59;100.00;100064.91;5094971;28;20070;-79
2022/02/24 07:40:34;;;;;;;33.15;14.18;;;;;;;6.52;100.00;100056.28;5095141;28;20040;-79
2022/02/24 07:43:19;;;;;;;28.35;12.20;;;;;;;7.00;100.00;100062.94;5095712;28;20036;-79
2022/02/24 07:46:04;;;;;;;23.23;9.60;;;;;;;7.05;100.00;100056.84;5096497;28;20418;-79
2022/02/24 07:48:50;;;;;;;26.48;10.63;;;;;;;7.06;100.00;100053.38;5096924;28;20047;-78
2022/02/24 07:51:34;;;;;;;27.60;8.70;;;;;;;7.00;100.00;100049.06;5096017;28;20051;-78
2022/02/24 07:54:21;;;;;;;19.65;8.20;;;;;;;7.17;100.00;100038.53;5095804;28;20441;-80
2022/02/24 07:57:05;;;;;;;25.17;11.38;;;;;;;7.17;100.00;100033.31;5081448;28;20040;-80
2022/02/24 07:59:50;;;;;;;26.13;11.20;;;;;;;7.21;100.00;100033.28;5095696;28;20105;-80
2022/02/24 08:02:34;;;;;;;28.10;12.00;;;;;;;7.52;100.00;100025.19;5081329;28;20459;-79
2022/02/24 08:05:19;;;;;;;22.88;11.18;;;;;;;7.35;100.00;100012.34;5096321;28;20036;-80
2022/02/24 08:08:04;;;;;;;31.30;14.82;;;;;;;7.44;100.00;100006.16;5096436;28;20119;-79
2022/02/24 08:10:49;;;;;;;26.55;12.35;;;;;;;7.60;100.00;99992.09;5096538;28;20040;-80
2022/02/24 08:13:33;;;;;;;30.08;13.45;;;;;;;7.71;100.00;99985.03;5096863;28;20036;-80
2022/02/24 08:16:17;;;;;;;27.10;13.10;;;;;;;7.94;100.00;99984.78;5095515;28;20059;-80
2022/02/24 08:19:02;;;;;;;64.18;26.05;;;;;;;7.90;100.00;99974.41;5095430;28;20449;-79
2022/02/24 08:21:46;;;;;;;17.92;9.38;;;;;;;8.11;98.28;99975.91;5096504;28;20040;-79
2022/02/24 08:24:32;;;;;;;30.75;11.60;;;;;;;7.88;100.00;99971.81;5096394;28;20437;-79
2022/02/24 08:27:17;;;;;;;18.45;9.27;;;;;;;8.08;99.07;99960.28;5081626;28;20044;-80
2022/02/24 08:30:07;;;;;;;27.90;11.63;;;;;;;8.05;99.73;99976.81;5095157;28;20048;-81
2022/02/24 08:32:53;;;;;;;21.08;9.73;;;;;;;7.89;99.26;99957.88;5095410;28;20047;-79
2022/02/24 08:35:38;;;;;;;22.23;8.88;;;;;;;7.92;98.96;99952.63;5095016;28;20059;-80
2022/02/24 08:38:22;;;;;;;20.83;9.88;;;;;;;8.06;99.10;99946.38;5080860;28;20350;-79
2022/02/24 08:41:06;;;;;;;21.92;10.63;;;;;;;8.33;99.18;99953.00;5095881;28;20389;-80
2022/02/24 08:43:51;;;;;;;21.27;9.57;;;;;;;8.46;99.79;99945.91;5094706;28;20051;-80
2022/02/24 08:46:35;;;;;;;25.65;11.25;;;;;;;8.48;97.66;99950.19;5095992;28;20327;-79
2022/02/24 08:49:19;;;;;;;21.50;9.57;;;;;;;8.38;96.67;99946.88;5095663;28;20440;-79
2022/02/24 08:52:05;;;;;;;22.75;8.60;;;;;;;8.45;96.86;99941.53;5095690;28;20115;-80
2022/02/24 08:54:50;;;;;;;16.45;7.28;;;;;;;8.48;95.94;99941.50;5081232;28;20040;-79
2022/02/24 08:57:34;;;;;;;18.88;6.93;;;;;;;8.52;94.75;99937.97;5095614;28;20044;-80
2022/02/24 09:00:18;;;;;;;20.15;7.63;;;;;;;8.58;89.81;99932.66;5096233;28;20338;-79
2022/02/24 09:03:03;;;;;;;22.60;8.10;;;;;;;8.55;86.48;99923.13;5095682;28;20140;-80
2022/02/24 09:05:48;;;;;;;22.63;8.68;;;;;;;8.73;82.32;99914.13;5095583;28;20044;-79
2022/02/24 09:08:32;;;;;;;17.45;7.85;;;;;;;8.86;82.27;99912.19;5096185;28;20054;-79
2022/02/24 09:11:17;;;;;;;17.05;7.78;;;;;;;8.65;82.41;99909.06;5096086;28;20094;-79
2022/02/24 09:14:01;;;;;;;20.30;8.48;;;;;;;8.71;81.36;99899.38;5094790;28;20062;-80
2022/02/24 09:16:46;;;;;;;20.52;7.68;;;;;;;8.80;80.59;99900.09;5095582;28;20356;-80
2022/02/24 09:19:31;;;;;;;22.23;9.55;;;;;;;9.01;80.91;99903.25;5094788;28;20323;-79
2022/02/24 09:22:15;;;;;;;13.88;5.70;;;;;;;9.16;79.51;99891.66;5094690;28;20036;-79
2022/02/24 09:25:00;;;;;;;11.00;5.75;;;;;;;9.18;78.34;99892.50;5094754;28;20047;-79
2022/02/24 09:27:45;;;;;;;23.67;10.02;;;;;;;9.06;80.04;99897.03;5095403;28;20044;-79
2022/02/24 09:30:29;;;;;;;24.75;10.63;;;;;;;9.25;78.68;99886.25;5094632;28;20044;-79
2022/02/24 09:33:14;;;;;;;33.28;13.63;;;;;;;9.38;78.60;99890.38;5093150;28;20043;-79
2022/02/24 09:35:58;;;;;;;16.80;9.23;;;;;;;9.51;76.79;99902.31;5093421;28;20048;-79
2022/02/24 09:38:42;;;;;;;17.13;6.65;;;;;;;9.50;76.87;99895.38;5093409;28;20033;-78
2022/02/24 09:41:27;;;;;;;17.73;8.52;;;;;;;9.60;76.79;99898.69;5092641;28;20437;-79
2022/02/24 09:44:12;;;;;;;16.60;7.03;;;;;;;9.52;76.54;99888.38;5092613;28;20047;-79
2022/02/24 09:46:58;;;;;;;14.95;6.35;;;;;;;9.62;75.67;99883.81;5093796;28;20040;-79
2022/02/24 09:49:42;;;;;;;19.25;8.77;;;;;;;9.72;77.28;99877.50;5095418;28;20036;-79
2022/02/24 09:52:27;;;;;;;27.10;13.20;;;;;;;9.94;76.11;99874.44;5093409;28;20051;-79
2022/02/24 09:55:12;;;;;;;31.13;13.70;;;;;;;10.20;76.46;99863.38;5095276;28;20052;-79
2022/02/24 09:57:56;;;;;;;19.98;10.18;;;;;;;10.51;75.02;99856.59;5084276;28;20044;-79
2022/02/24 10:00:41;;;;;;;23.40;12.35;;;;;;;10.70;72.10;99859.63;5098255;28;20035;-80
2022/02/24 10:03:31;;;;;;;55.25;19.00;;;;;;;10.77;70.03;99853.31;5099284;28;20051;-79
2022/02/24 10:06:16;;;;;;;40.53;13.02;;;;;;;10.80;70.54;99865.50;5098217;28;20423;-79
2022/02/24 10:09:01;;;;;;;24.05;9.30;;;;;;;10.91;70.65;99845.09;5098315;28;20086;-79
2022/02/24 10:11:47;;;;;;;21.70;7.03;;;;;;;10.87;69.09;99834.75;5099368;28;20048;-79
2022/02/24 10:14:33;;;;;;;30.35;10.77;;;;;;;10.85;69.24;99836.53;5084179;28;20116;-79
2022/02/24 10:17:18;;;;;;;29.48;10.65;;;;;;;11.02;68.96;99831.75;5098237;28;20128;-80
2022/02/24 10:20:08;;;;;;;30.77;10.68;;;;;;;11.07;67.45;99839.47;5097507;28;20186;-79
2022/02/24 10:22:57;;;;;;;14.65;6.60;;;;;;;11.11;68.59;99828.84;5083750;28;20047;-79
2022/02/24 10:25:50;;;;;;;23.05;9.32;;;;;;;11.13;66.70;99815.72;5097634;28;20040;-79
2022/02/24 10:28:42;;;;;;;21.17;8.02;;;;;;;11.45;65.87;99817.44;5098154;28;20151;-80
2022/02/24 10:31:27;;;;;;;21.90;8.27;;;;;;;11.42;66.53;99792.16;5097409;28;20123;-80
2022/02/24 10:34:11;;;;;;;18.13;6.88;;;;;;;11.57;64.12;99798.75;5097570;28;20198;-79
2022/02/24 10:36:55;;;;;;;20.40;8.20;;;;;;;11.64;65.20;99791.56;5083188;28;20453;-81
2022/02/24 10:39:40;;;;;;;14.30;6.85;;;;;;;11.78;65.74;99786.75;5098339;28;20105;-80
2022/02/24 10:42:24;;;;;;;22.45;8.13;;;;;;;11.68;64.17;99787.91;5097296;28;20330;-79
2022/02/24 10:45:11;;;;;;;14.25;6.20;;;;;;;11.85;63.73;99767.31;5097840;28;20048;-79
2022/02/24 10:48:00;;;;;;;16.42;7.70;;;;;;;11.80;63.03;99776.22;5083183;28;20044;-79
2022/02/24 10:50:51;;;;;;;23.38;7.80;;;;;;;11.95;62.68;99773.13;5097114;28;20044;-79
2022/02/24 10:53:36;;;;;;;12.90;5.05;;;;;;;11.80;61.64;99761.31;5097966;28;20036;-79
2022/02/24 10:56:24;;;;;;;14.00;4.75;;;;;;;11.92;63.21;99765.34;5096908;28;20040;-79
2022/02/24 10:59:14;;;;;;;9.80;3.97;;;;;;;12.01;62.62;99753.72;5097026;28;20401;-79
2022/02/24 11:01:59;;;;;;;10.50;4.05;;;;;;;12.08;62.36;99749.97;5097236;28;20099;-79
2022/02/24 11:04:44;;;;;;;22.13;9.02;;;;;;;12.33;62.34;99742.16;5097493;28;20388;-79
2022/02/24 11:07:31;;;;;;;20.85;8.43;;;;;;;12.34;60.33;99738.63;5097202;28;20036;-78
2022/02/24 11:10:15;;;;;;;14.63;5.95;;;;;;;12.35;60.89;99729.84;5096719;28;20035;-79
2022/02/24 11:13:00;;;;;;;13.48;5.50;;;;;;;12.39;62.26;99721.81;5116095;28;20032;-78
2022/02/24 11:15:45;;;;;;;14.30;6.13;;;;;;;12.54;61.11;99727.44;5099556;28;20055;-79
2022/02/24 11:18:29;;;;;;;17.55;6.20;;;;;;;12.35;60.00;99714.94;5112687;28;20433;-79
2022/02/24 11:21:16;;;;;;;13.98;5.65;;;;;;;12.30;60.83;99713.38;5114714;28;20616;-79
2022/02/24 11:24:01;;;;;;;15.55;5.65;;;;;;;12.58;61.36;99710.69;5115657;28;20043;-79
2022/02/24 11:27:21;;;;;;;14.10;6.47;;;;;;;12.67;59.21;99706.84;5115649;28;20114;-79
2022/02/24 11:30:13;;;;;;;9.18;4.53;;;;;;;12.71;59.04;99680.44;5080469;28;20433;-80
2022/02/24 11:32:57;;;;;;;13.82;5.80;;;;;;;12.51;56.98;99675.88;5114614;28;20039;-79
2022/02/24 11:35:42;;;;;;;16.88;7.03;;;;;;;12.45;58.01;99673.47;5116187;28;20326;-79
2022/02/24 11:38:27;;;;;;;13.32;5.85;;;;;;;12.26;57.55;99656.63;5116182;28;20043;-79
2022/02/24 11:41:16;;;;;;;12.90;5.40;;;;;;;12.28;58.56;99652.16;5117011;28;20039;-79
2022/02/24 11:44:01;;;;;;;10.27;5.07;;;;;;;12.45;59.46;99643.72;5116474;28;20393;-79
2022/02/24 11:47:04;;;;;;;17.77;6.85;;;;;;;12.47;59.16;99642.72;5116806;28;20059;-79
2022/02/24 11:49:54;;;;;;;11.30;5.85;;;;;;;12.25;58.15;99639.13;5116202;28;20377;-78
2022/02/24 11:52:49;;;;;;;11.13;4.57;;;;;;;12.15;59.04;99620.22;5117020;28;20040;-79
2022/02/24 11:56:11;;;;;;;9.98;5.22;;;;;;;11.92;58.96;99613.97;5116466;28;20070;-79
2022/02/24 11:58:55;;;;;;;11.13;4.85;;;;;;;11.96;59.44;99599.00;5115020;28;20055;-80
2022/02/24 12:01:43;;;;;;;6.72;2.97;;;;;;;11.75;59.14;99592.66;5116178;28;20039;-79
2022/02/24 12:04:29;;;;;;;17.30;5.88;;;;;;;11.60;59.81;99591.44;5115947;28;20040;-80
2022/02/24 12:07:19;;;;;;;36.45;14.50;;;;;;;11.66;59.76;99587.72;5116296;28;20043;-80
2022/02/24 12:10:12;;;;;;;51.13;22.70;;;;;;;11.69;61.50;99588.47;5115813;28;20054;-79
2022/02/24 12:13:26;;;;;;;39.20;17.67;;;;;;;11.71;61.48;99575.31;5115706;28;20040;-79
2022/02/24 12:16:22;;;;;;;23.27;9.25;;;;;;;11.70;59.61;99577.09;5116337;28;20036;-79
2022/02/24 12:19:06;;;;;;;42.65;17.40;;;;;;;11.66;60.53;99574.59;5115034;28;20043;-79
2022/02/24 12:22:29;;;;;;;35.78;14.23;;;;;;;11.61;59.19;99569.53;5116729;28;20043;-80
2022/02/24 12:25:22;;;;;;;26.50;11.93;;;;;;;11.60;60.89;99561.69;5115876;28;20040;-80
2022/02/24 12:28:08;;;;;;;18.13;8.52;;;;;;;11.60;61.23;99554.69;5101019;28;20050;-80
2022/02/24 12:30:55;;;;;;;22.98;9.35;;;;;;;11.63;61.63;99535.34;5101185;28;20071;-80
2022/02/24 12:33:40;;;;;;;16.80;7.80;;;;;;;11.60;60.99;99525.84;5115414;28;20042;-80